createdAt,value
2023-03-10T00:02:23.812Z,99.31
2023-03-10T00:04:53.756Z,99.59
2023-03-10T00:07:20.795Z,99.64
2023-03-10T00:09:47.772Z,100.00
2023-03-10T00:12:14.574Z,99.83
2023-03-10T00:14:40.995Z,99.14
2023-03-10T00:17:07.716Z,99.61
2023-03-10T00:19:34.258Z,99.06
2023-03-10T00:22:02.531Z,99.79
2023-03-10T00:24:29.044Z,99.62
2023-03-10T00:26:55.450Z,99.47
2023-03-10T00:29:22.130Z,99.47
2023-03-10T00:31:48.605Z,99.64
2023-03-10T00:34:15.079Z,98.78
2023-03-10T00:36:41.523Z,99.00
2023-03-10T00:39:11.326Z,99.18
2023-03-10T00:41:39.157Z,98.54
2023-03-10T00:44:07.297Z,99.19
2023-03-10T00:46:34.352Z,99.24
2023-03-10T00:49:00.846Z,99.39
2023-03-10T00:51:27.352Z,98.94
2023-03-10T00:53:53.966Z,99.07
2023-03-10T00:56:25.772Z,99.25
2023-03-10T00:58:54.599Z,99.31
2023-03-10T01:01:25.467Z,99.32
2023-03-10T01:03:54.449Z,99.33
2023-03-10T01:06:21.330Z,99.46
2023-03-10T01:08:48.593Z,98.61
2023-03-10T01:11:16.704Z,98.67
2023-03-10T01:13:43.727Z,99.01
2023-03-10T01:16:10.607Z,98.33
2023-03-10T01:18:37.653Z,99.09
2023-03-10T01:21:04.827Z,98.59
2023-03-10T01:23:31.416Z,99.87
2023-03-10T01:25:57.854Z,99.49
2023-03-10T01:28:24.734Z,99.52
2023-03-10T01:30:51.209Z,99.35
2023-03-10T01:33:18.158Z,99.82
2023-03-10T01:35:45.232Z,98.80
2023-03-10T01:38:12.525Z,99.58
2023-03-10T01:40:40.011Z,99.73
2023-03-10T01:43:27.754Z,99.46
2023-03-10T01:45:54.092Z,99.25
2023-03-10T01:48:22.371Z,99.19
2023-03-10T01:50:53.721Z,98.97
2023-03-10T01:53:21.805Z,99.18
2023-03-10T01:56:06.599Z,99.16
2023-03-10T01:58:40.363Z,98.93
2023-03-10T02:01:08.472Z,99.33
2023-03-10T02:03:41.630Z,98.69
2023-03-10T02:06:11.099Z,99.35
2023-03-10T02:08:44.394Z,99.03
2023-03-10T02:11:11.640Z,99.17
2023-03-10T02:13:38.035Z,99.01
2023-03-10T02:16:04.949Z,98.55
2023-03-10T02:18:32.218Z,99.02
2023-03-10T02:21:11.086Z,99.11
2023-03-10T02:24:01.266Z,99.18
2023-03-10T02:26:34.247Z,99.13
2023-03-10T02:29:05.423Z,99.28
2023-03-10T02:31:32.981Z,98.92
2023-03-10T02:33:59.563Z,99.46
2023-03-10T02:36:26.110Z,99.52
2023-03-10T02:38:52.570Z,99.86
2023-03-10T02:41:35.028Z,99.81
2023-03-10T02:44:06.800Z,98.94
2023-03-10T02:46:33.271Z,99.24
2023-03-10T02:49:01.371Z,99.48
2023-03-10T02:51:33.668Z,98.92
2023-03-10T02:54:01.204Z,98.85
2023-03-10T02:56:29.019Z,99.10
2023-03-10T02:58:55.400Z,99.27
2023-03-10T03:01:21.914Z,99.92
2023-03-10T03:03:48.459Z,98.78
2023-03-10T03:06:14.949Z,99.37
2023-03-10T03:08:41.599Z,99.26
2023-03-10T03:11:08.406Z,99.51
2023-03-10T03:13:34.931Z,99.23
2023-03-10T03:16:01.561Z,99.36
2023-03-10T03:18:28.038Z,99.03
2023-03-10T03:20:54.477Z,99.30
2023-03-10T03:23:20.969Z,99.17
2023-03-10T03:25:47.462Z,98.99
2023-03-10T03:28:13.979Z,99.48
2023-03-10T03:30:41.035Z,99.00
2023-03-10T03:33:08.016Z,99.19
2023-03-10T03:35:36.901Z,99.52
2023-03-10T03:38:05.172Z,99.28
2023-03-10T03:40:33.593Z,99.97
2023-03-10T03:43:00.315Z,99.59
2023-03-10T03:45:29.291Z,99.04
2023-03-10T03:47:56.000Z,99.78
2023-03-10T03:50:23.843Z,99.87
2023-03-10T03:52:50.699Z,99.45
2023-03-10T03:55:17.757Z,99.53
2023-03-10T03:57:47.375Z,99.22
2023-03-10T04:00:20.387Z,99.40
2023-03-10T04:02:47.229Z,99.55
2023-03-10T04:05:13.985Z,99.29
2023-03-10T04:07:42.172Z,99.77
2023-03-10T04:10:12.827Z,99.92
2023-03-10T04:12:39.442Z,100.00
2023-03-10T04:15:08.257Z,99.84
2023-03-10T04:17:35.763Z,100.00
2023-03-10T04:20:07.347Z,100.00
2023-03-10T04:22:35.299Z,99.82
2023-03-10T04:25:02.004Z,99.53
2023-03-10T04:27:28.465Z,99.46
2023-03-10T04:29:54.962Z,100.00
2023-03-10T04:32:21.677Z,100.00
2023-03-10T04:34:48.243Z,99.68
2023-03-10T04:37:14.673Z,99.96
2023-03-10T04:39:41.404Z,99.63
2023-03-10T04:42:08.204Z,99.96
2023-03-10T04:44:34.808Z,99.31
2023-03-10T04:47:01.299Z,99.61
2023-03-10T04:49:28.155Z,99.68
2023-03-10T04:51:54.659Z,99.19
2023-03-10T04:54:21.163Z,99.68
2023-03-10T04:56:47.523Z,99.18
2023-03-10T04:59:13.915Z,99.01
2023-03-10T05:01:40.592Z,99.95
2023-03-10T05:04:07.139Z,100.00
2023-03-10T05:06:33.586Z,99.11
2023-03-10T05:09:03.099Z,99.55
2023-03-10T05:11:29.578Z,99.61
2023-03-10T05:13:56.031Z,99.31
2023-03-10T05:16:23.030Z,99.74
2023-03-10T05:18:49.674Z,100.00
2023-03-10T05:21:16.548Z,99.33
2023-03-10T05:23:43.118Z,99.68
2023-03-10T05:26:11.085Z,99.67
2023-03-10T05:28:38.288Z,99.29
2023-03-10T05:31:13.077Z,99.29
2023-03-10T05:33:40.510Z,99.48
2023-03-10T05:36:08.541Z,99.33
2023-03-10T05:38:35.378Z,99.42
2023-03-10T05:41:02.447Z,99.42
2023-03-10T05:43:28.886Z,99.62
2023-03-10T05:45:59.028Z,99.42
2023-03-10T05:48:25.928Z,99.50
2023-03-10T05:51:02.494Z,99.76
2023-03-10T05:53:30.303Z,99.49
2023-03-10T05:55:57.451Z,99.03
2023-03-10T05:58:24.929Z,98.75
2023-03-10T06:00:51.911Z,99.25
2023-03-10T06:03:19.366Z,99.40
2023-03-10T06:05:46.084Z,98.87
2023-03-10T06:08:12.629Z,99.48
2023-03-10T06:10:39.158Z,99.04
2023-03-10T06:13:05.858Z,99.42
2023-03-10T06:15:32.333Z,99.56
2023-03-10T06:17:58.872Z,99.74
2023-03-10T06:20:26.596Z,99.10
2023-03-10T06:22:53.373Z,99.20
2023-03-10T06:25:20.294Z,99.33
2023-03-10T06:27:47.295Z,98.93
2023-03-10T06:30:14.911Z,99.39
2023-03-10T06:32:41.801Z,99.05
2023-03-10T06:35:09.995Z,99.24
2023-03-10T06:37:36.445Z,99.13
2023-03-10T06:40:04.323Z,99.90
2023-03-10T06:42:32.313Z,99.43
2023-03-10T06:44:58.831Z,99.82
2023-03-10T06:47:25.379Z,99.28
2023-03-10T06:49:54.576Z,99.82
2023-03-10T06:52:21.029Z,99.69
2023-03-10T06:54:47.563Z,99.48
2023-03-10T06:57:15.190Z,99.46
2023-03-10T06:59:41.577Z,99.25
2023-03-10T07:02:11.568Z,100.00
2023-03-10T07:04:38.696Z,99.86
2023-03-10T07:07:05.457Z,100.00
2023-03-10T07:09:31.917Z,100.00
2023-03-10T07:11:58.595Z,100.00
2023-03-10T07:14:25.058Z,100.00
2023-03-10T07:16:51.514Z,100.00
2023-03-10T07:19:18.143Z,100.00
2023-03-10T07:21:44.623Z,100.00
2023-03-10T07:24:10.989Z,99.97
2023-03-10T07:26:37.741Z,100.00
2023-03-10T07:29:04.450Z,100.00
2023-03-10T07:31:30.973Z,100.00
2023-03-10T07:33:57.394Z,100.00
2023-03-10T07:36:24.201Z,100.00
2023-03-10T07:38:50.830Z,100.00
2023-03-10T07:41:21.035Z,100.00
2023-03-10T07:43:51.010Z,100.00
2023-03-10T07:46:17.658Z,100.00
2023-03-10T07:48:44.393Z,99.79
2023-03-10T07:51:12.398Z,100.00
2023-03-10T07:53:38.904Z,100.00
2023-03-10T07:56:10.478Z,100.00
2023-03-10T07:58:37.215Z,100.00
2023-03-10T08:01:05.304Z,100.00
2023-03-10T08:03:34.012Z,100.00
2023-03-10T08:06:02.393Z,100.00
2023-03-10T08:08:29.079Z,100.00
2023-03-10T08:11:07.464Z,100.00
2023-03-10T08:13:34.020Z,100.00
2023-03-10T08:16:01.789Z,99.92
2023-03-10T08:18:29.449Z,100.00
2023-03-10T08:20:56.635Z,100.00
2023-03-10T08:23:24.302Z,100.00
2023-03-10T08:25:51.604Z,99.97
2023-03-10T08:28:18.001Z,100.00
2023-03-10T08:31:02.649Z,99.46
2023-03-10T08:33:30.593Z,100.00
2023-03-10T08:36:12.522Z,100.00
2023-03-10T08:38:39.627Z,100.00
2023-03-10T08:41:11.891Z,100.00
2023-03-10T08:43:39.137Z,100.00
2023-03-10T08:46:08.602Z,100.00
2023-03-10T08:48:35.441Z,99.70
2023-03-10T08:51:02.010Z,99.96
2023-03-10T08:53:28.566Z,99.61
2023-03-10T08:55:55.229Z,99.79
2023-03-10T08:58:22.938Z,99.32
2023-03-10T09:00:49.414Z,99.70
2023-03-10T09:03:16.369Z,100.00
2023-03-10T09:05:43.165Z,99.89
2023-03-10T09:08:10.216Z,99.30
2023-03-10T09:10:37.884Z,99.72
2023-03-10T09:13:13.789Z,100.00
2023-03-10T09:15:41.471Z,99.82
2023-03-10T09:18:10.569Z,99.03
2023-03-10T09:20:39.973Z,99.65
2023-03-10T09:23:08.213Z,100.00
2023-03-10T09:25:35.138Z,99.83
2023-03-10T09:28:01.533Z,99.36
2023-03-10T09:30:28.103Z,100.00
2023-03-10T09:32:55.691Z,99.93
2023-03-10T09:35:22.664Z,100.00
2023-03-10T09:37:49.283Z,100.00
2023-03-10T09:40:19.658Z,99.90
2023-03-10T09:42:51.264Z,100.00
2023-03-10T09:45:47.054Z,100.00
2023-03-10T09:48:26.260Z,100.00
2023-03-10T09:50:56.360Z,99.91
2023-03-10T09:53:29.469Z,100.00
2023-03-10T09:55:56.875Z,100.00
2023-03-10T09:58:45.753Z,100.00
2023-03-10T10:01:19.413Z,99.95
2023-03-10T10:04:28.018Z,99.71
2023-03-10T10:06:57.260Z,100.00
2023-03-10T10:09:32.767Z,100.00
2023-03-10T10:12:11.694Z,100.00
2023-03-10T10:14:42.573Z,99.77
2023-03-10T10:17:17.436Z,100.00
2023-03-10T10:19:47.739Z,100.00
2023-03-10T10:22:21.610Z,100.00
2023-03-10T10:25:09.474Z,100.00
2023-03-10T10:27:36.921Z,99.89
2023-03-10T10:30:30.936Z,99.29
2023-03-10T10:33:06.167Z,99.15
2023-03-10T10:35:35.960Z,99.86
2023-03-10T10:38:04.252Z,99.28
2023-03-10T10:40:34.332Z,99.31
2023-03-10T10:43:01.308Z,99.84
2023-03-10T10:45:35.714Z,99.48
2023-03-10T10:48:03.404Z,99.60
2023-03-10T10:50:32.060Z,99.44
2023-03-10T10:53:13.775Z,99.75
2023-03-10T10:55:41.548Z,100.00
2023-03-10T10:59:03.911Z,100.00
2023-03-10T11:01:48.674Z,100.00
2023-03-10T11:04:17.413Z,99.66
2023-03-10T11:06:44.688Z,99.96
2023-03-10T11:09:12.691Z,99.90
2023-03-10T11:11:50.088Z,100.00
2023-03-10T11:14:16.420Z,99.71
2023-03-10T11:17:08.311Z,99.62
2023-03-10T11:20:09.120Z,99.95
2023-03-10T11:22:42.215Z,99.88
2023-03-10T11:25:15.844Z,100.00
2023-03-10T11:27:57.256Z,100.00
2023-03-10T11:30:35.413Z,99.54
2023-03-10T11:33:13.973Z,99.77
2023-03-10T11:35:51.370Z,100.00
2023-03-10T11:38:42.316Z,99.92
2023-03-10T11:41:19.797Z,100.00
2023-03-10T11:43:52.282Z,100.00
2023-03-10T11:46:32.190Z,99.98
2023-03-10T11:49:19.654Z,99.53
2023-03-10T11:51:58.286Z,100.00
2023-03-10T11:54:28.618Z,99.89
2023-03-10T11:56:56.055Z,99.88
2023-03-10T11:59:25.424Z,99.28
2023-03-10T12:02:00.622Z,99.39
2023-03-10T12:04:34.930Z,99.58
2023-03-10T12:07:13.092Z,100.00
2023-03-10T12:09:46.428Z,99.54
2023-03-10T12:12:16.315Z,99.61
2023-03-10T12:14:44.907Z,99.55
2023-03-10T12:17:14.366Z,99.54
2023-03-10T12:20:14.661Z,99.37
2023-03-10T12:22:54.148Z,99.18
2023-03-10T12:25:29.905Z,98.85
2023-03-10T12:28:14.959Z,99.12
2023-03-10T12:30:47.578Z,99.07
2023-03-10T12:33:39.508Z,98.66
2023-03-10T12:36:32.491Z,98.11
2023-03-10T12:39:27.497Z,98.73
2023-03-10T12:42:02.377Z,98.84
2023-03-10T12:45:00.205Z,98.52
2023-03-10T12:47:32.178Z,98.68
2023-03-10T12:50:19.503Z,98.43
2023-03-10T12:52:56.461Z,98.91
2023-03-10T12:55:25.275Z,98.83
2023-03-10T12:58:00.530Z,97.87
2023-03-10T13:00:38.337Z,98.50
2023-03-10T13:03:43.559Z,97.81
2023-03-10T13:06:20.739Z,97.87
2023-03-10T13:09:01.833Z,97.89
2023-03-10T13:12:02.011Z,98.56
2023-03-10T13:14:41.493Z,98.62
2023-03-10T13:17:22.056Z,97.95
2023-03-10T13:20:08.427Z,97.92
2023-03-10T13:22:35.799Z,99.04
2023-03-10T13:25:09.609Z,98.36
2023-03-10T13:27:36.090Z,98.08
2023-03-10T13:30:22.660Z,98.15
2023-03-10T13:32:54.142Z,97.89
2023-03-10T13:35:35.920Z,98.02
2023-03-10T13:38:13.299Z,98.26
2023-03-10T13:40:43.552Z,97.45
2023-03-10T13:43:34.972Z,98.35
2023-03-10T13:46:03.279Z,97.77
2023-03-10T13:48:32.192Z,97.37
2023-03-10T13:51:07.762Z,97.17
2023-03-10T13:53:34.316Z,97.73
2023-03-10T13:56:09.534Z,98.03
2023-03-10T13:58:36.368Z,98.00
2023-03-10T14:01:03.080Z,97.57
2023-03-10T14:03:31.419Z,97.60
2023-03-10T14:05:57.940Z,97.76
2023-03-10T14:08:32.248Z,97.66
2023-03-10T14:11:23.515Z,97.26
2023-03-10T14:13:50.074Z,97.30
2023-03-10T14:16:19.445Z,98.27
2023-03-10T14:18:45.949Z,97.72
2023-03-10T14:21:33.072Z,97.52
2023-03-10T14:24:04.525Z,97.29
2023-03-10T14:26:31.301Z,97.17
2023-03-10T14:28:59.576Z,98.23
2023-03-10T14:31:26.160Z,99.14
2023-03-10T14:33:52.685Z,99.02
2023-03-10T14:36:19.147Z,98.56
2023-03-10T14:38:45.973Z,98.83
2023-03-10T14:41:13.644Z,99.05
2023-03-10T14:43:41.935Z,99.24
2023-03-10T14:46:12.472Z,98.96
2023-03-10T14:48:41.774Z,99.56
2023-03-10T14:51:28.983Z,100.00
2023-03-10T14:54:00.814Z,99.06
2023-03-10T14:56:28.016Z,99.13
2023-03-10T14:58:55.260Z,99.34
2023-03-10T15:01:21.794Z,99.06
2023-03-10T15:03:52.606Z,99.53
2023-03-10T15:06:19.978Z,99.88
2023-03-10T15:08:46.461Z,99.94
2023-03-10T15:11:13.834Z,100.00
2023-03-10T15:13:41.027Z,99.85
2023-03-10T15:16:12.315Z,100.00
2023-03-10T15:18:38.788Z,99.92
2023-03-10T15:21:05.423Z,100.00
2023-03-10T15:23:31.835Z,100.00
2023-03-10T15:25:58.910Z,99.97
2023-03-10T15:28:27.239Z,99.55
2023-03-10T15:30:54.660Z,99.75
2023-03-10T15:33:21.269Z,100.00
2023-03-10T15:35:47.941Z,100.00
2023-03-10T15:38:15.136Z,100.00
2023-03-10T15:40:42.276Z,100.00
2023-03-10T15:43:09.120Z,100.00
2023-03-10T15:45:40.674Z,100.00
2023-03-10T15:48:07.559Z,100.00
2023-03-10T15:50:34.373Z,100.00
2023-03-10T15:53:00.756Z,100.00
2023-03-10T15:55:28.873Z,100.00
2023-03-10T15:57:56.425Z,100.00
2023-03-10T16:00:24.516Z,100.00
2023-03-10T16:02:51.398Z,100.00
2023-03-10T16:05:19.238Z,100.00
2023-03-10T16:07:46.139Z,100.00
2023-03-10T16:10:15.259Z,100.00
2023-03-10T16:12:41.887Z,100.00
2023-03-10T16:15:09.092Z,100.00
2023-03-10T16:17:35.447Z,100.00
2023-03-10T16:20:06.564Z,100.00
2023-03-10T16:22:32.975Z,100.00
2023-03-10T16:24:59.489Z,100.00
2023-03-10T16:27:25.930Z,100.00
2023-03-10T16:29:52.327Z,100.00
2023-03-10T16:32:19.681Z,100.00
2023-03-10T16:34:46.276Z,100.00
2023-03-10T16:37:12.767Z,100.00
2023-03-10T16:39:40.283Z,100.00
2023-03-10T16:42:06.920Z,100.00
2023-03-10T16:44:33.317Z,100.00
2023-03-10T16:46:59.746Z,100.00
2023-03-10T16:49:26.248Z,100.00
2023-03-10T16:51:52.727Z,100.00
2023-03-10T16:54:21.837Z,100.00
2023-03-10T16:56:50.401Z,100.00
2023-03-10T16:59:24.756Z,100.00
2023-03-10T17:01:51.966Z,100.00
2023-03-10T17:04:19.917Z,100.00
2023-03-10T17:06:48.016Z,100.00
2023-03-10T17:09:15.798Z,100.00
2023-03-10T17:11:55.350Z,100.00
2023-03-10T17:14:22.586Z,100.00
2023-03-10T17:16:49.360Z,100.00
2023-03-10T17:19:18.508Z,100.00
2023-03-10T17:21:48.325Z,100.00
2023-03-10T17:24:17.711Z,100.00
2023-03-10T17:26:44.782Z,100.00
2023-03-10T17:29:11.908Z,100.00
2023-03-10T17:31:38.915Z,100.00
2023-03-10T17:34:08.463Z,100.00
2023-03-10T17:36:35.026Z,100.00
2023-03-10T17:39:03.648Z,100.00
2023-03-10T17:41:31.519Z,100.00
2023-03-10T17:43:58.348Z,100.00
2023-03-10T17:46:27.984Z,100.00
2023-03-10T17:48:54.696Z,100.00
2023-03-10T17:51:26.694Z,100.00
2023-03-10T17:53:54.145Z,100.00
2023-03-10T17:56:21.994Z,100.00
2023-03-10T17:58:48.893Z,99.89
2023-03-10T18:01:19.092Z,100.00
2023-03-10T18:03:48.082Z,100.00
2023-03-10T18:06:20.605Z,99.66
2023-03-10T18:08:47.410Z,99.78
2023-03-10T18:11:14.555Z,99.80
2023-03-10T18:13:41.323Z,100.00
2023-03-10T18:16:18.272Z,99.87
2023-03-10T18:18:45.583Z,100.00
2023-03-10T18:21:14.297Z,100.00
2023-03-10T18:23:41.250Z,99.95
2023-03-10T18:26:09.496Z,99.15
2023-03-10T18:28:37.238Z,99.83
2023-03-10T18:31:06.696Z,99.91
2023-03-10T18:33:33.168Z,99.94
2023-03-10T18:36:02.203Z,100.00
2023-03-10T18:38:28.602Z,100.00
2023-03-10T18:41:00.023Z,100.00
2023-03-10T18:43:29.006Z,100.00
2023-03-10T18:45:56.222Z,100.00
2023-03-10T18:48:25.611Z,100.00
2023-03-10T18:50:52.829Z,100.00
2023-03-10T18:53:19.294Z,100.00
2023-03-10T18:55:45.757Z,100.00
2023-03-10T18:58:12.240Z,100.00
2023-03-10T19:00:38.802Z,100.00
2023-03-10T19:03:05.528Z,100.00
2023-03-10T19:05:31.993Z,100.00
2023-03-10T19:07:58.464Z,100.00
2023-03-10T19:10:24.953Z,100.00
2023-03-10T19:12:51.322Z,100.00
2023-03-10T19:15:18.675Z,100.00
2023-03-10T19:17:45.688Z,100.00
2023-03-10T19:20:14.198Z,100.00
2023-03-10T19:22:42.085Z,100.00
2023-03-10T19:25:12.078Z,100.00
2023-03-10T19:27:40.414Z,100.00
2023-03-10T19:30:20.087Z,100.00
2023-03-10T19:32:47.352Z,100.00
2023-03-10T19:35:14.772Z,100.00
2023-03-10T19:37:44.346Z,100.00
2023-03-10T19:40:16.985Z,100.00
2023-03-10T19:42:44.143Z,99.84
2023-03-10T19:45:12.646Z,99.83
2023-03-10T19:47:39.586Z,98.96
2023-03-10T19:50:06.372Z,98.31
2023-03-10T19:52:32.883Z,98.52
2023-03-10T19:54:59.347Z,98.12
2023-03-10T19:57:25.938Z,98.13
2023-03-10T19:59:52.636Z,98.05
2023-03-10T20:02:19.517Z,98.13
2023-03-10T20:04:47.617Z,98.25
2023-03-10T20:07:14.076Z,97.32
2023-03-10T20:09:40.515Z,96.96
2023-03-10T20:12:06.951Z,96.68
2023-03-10T20:14:33.405Z,96.47
2023-03-10T20:16:59.854Z,95.98
2023-03-10T20:19:26.420Z,95.47
2023-03-10T20:21:52.819Z,95.33
2023-03-10T20:24:19.338Z,95.88
2023-03-10T20:26:45.702Z,95.64
2023-03-10T20:29:12.489Z,95.37
2023-03-10T20:31:39.040Z,95.33
2023-03-10T20:34:06.937Z,95.30
2023-03-10T20:36:34.096Z,95.00
2023-03-10T20:39:00.698Z,95.34
2023-03-10T20:41:27.231Z,94.52
2023-03-10T20:43:53.787Z,94.75
2023-03-10T20:46:22.740Z,94.37
2023-03-10T20:48:50.724Z,94.60
2023-03-10T20:51:19.221Z,94.66
2023-03-10T20:53:45.918Z,94.56
2023-03-10T20:56:14.149Z,95.36
2023-03-10T20:58:40.687Z,94.51
2023-03-10T21:01:15.167Z,94.25
2023-03-10T21:03:41.756Z,93.88
2023-03-10T21:06:08.304Z,94.49
2023-03-10T21:08:34.799Z,93.74
2023-03-10T21:11:01.438Z,93.76
2023-03-10T21:13:28.195Z,93.96
2023-03-10T21:15:54.575Z,93.75
2023-03-10T21:18:20.953Z,93.21
2023-03-10T21:20:47.404Z,93.77
2023-03-10T21:23:13.779Z,94.30
2023-03-10T21:25:40.427Z,94.37
2023-03-10T21:28:06.835Z,93.60
2023-03-10T21:30:34.106Z,93.16
2023-03-10T21:33:00.613Z,93.52
2023-03-10T21:35:30.414Z,93.77
2023-03-10T21:37:59.153Z,93.15
2023-03-10T21:40:26.641Z,92.98
2023-03-10T21:42:53.177Z,93.36
2023-03-10T21:45:22.128Z,92.87
2023-03-10T21:47:48.882Z,92.55
2023-03-10T21:50:16.370Z,92.59
2023-03-10T21:52:43.169Z,92.55
2023-03-10T21:55:21.674Z,92.77
2023-03-10T21:57:48.525Z,92.24
2023-03-10T22:00:17.301Z,92.00
2023-03-10T22:02:43.711Z,92.13
2023-03-10T22:05:13.413Z,91.85
2023-03-10T22:07:40.650Z,92.35
2023-03-10T22:10:07.965Z,92.15
2023-03-10T22:12:34.801Z,92.49
2023-03-10T22:15:01.825Z,91.90
2023-03-10T22:17:28.275Z,92.09
2023-03-10T22:19:54.866Z,92.85
2023-03-10T22:22:22.684Z,92.51
2023-03-10T22:24:49.502Z,92.72
2023-03-10T22:27:16.289Z,92.80
2023-03-10T22:29:42.822Z,93.23
2023-03-10T22:32:09.251Z,92.12
2023-03-10T22:34:35.663Z,92.70
2023-03-10T22:37:02.036Z,92.36
2023-03-10T22:39:28.456Z,93.41
2023-03-10T22:41:54.914Z,93.19
2023-03-10T22:44:21.390Z,93.46
2023-03-10T22:46:47.946Z,94.04
2023-03-10T22:49:14.685Z,93.84
2023-03-10T22:51:41.617Z,94.24
2023-03-10T22:54:08.002Z,94.71
2023-03-10T22:56:34.447Z,94.61
2023-03-10T22:59:03.814Z,94.46
2023-03-10T23:01:30.438Z,94.62
2023-03-10T23:03:56.989Z,94.07
2023-03-10T23:06:24.493Z,94.67
2023-03-10T23:08:51.831Z,93.38
2023-03-10T23:11:18.338Z,93.28
2023-03-10T23:13:45.002Z,93.20
2023-03-10T23:16:12.056Z,92.32
2023-03-10T23:18:38.538Z,92.37
2023-03-10T23:21:06.019Z,92.03
2023-03-10T23:23:32.474Z,91.20
2023-03-10T23:25:59.056Z,91.64
2023-03-10T23:28:25.484Z,90.98
2023-03-10T23:30:54.076Z,90.06
2023-03-10T23:33:22.887Z,90.11
2023-03-10T23:35:54.346Z,89.62
2023-03-10T23:38:23.250Z,90.09
2023-03-10T23:40:50.778Z,90.11
2023-03-10T23:43:18.240Z,88.67
2023-03-10T23:45:45.115Z,88.73
2023-03-10T23:48:16.056Z,88.56
2023-03-10T23:50:44.543Z,88.12
2023-03-10T23:53:12.908Z,87.92
2023-03-10T23:55:42.499Z,87.97
2023-03-10T23:58:09.810Z,87.71
